Time;durP1;ratioP1;P1;durP2;ratioP2;P2;SDS_P1;SDS_P2;PMS_P1;PMS_P2;Temp;Humidity;BMP_temperature;BMP_pressure;BME280_temperature;BME280_humidity;BME280_pressure;Samples;Min_cycle;Max_cycle;Signal;HPM_P1;HPM_P2
2022/03/23 00:00:38;;;;;;;2.45;1.95;;;;;;;;;;4214553;28;20063;-36
2022/03/23 00:02:39;;;;;;;1.70;1.60;;;;;;;;;;4213917;28;20048;-36
2022/03/23 00:04:40;;;;;;;1.80;1.65;;;;;;;;;;4214265;28;20094;-36
2022/03/23 00:06:42;;;;;;;2.35;2.03;;;;;;;;;;4214536;28;20063;-35
2022/03/23 00:08:43;;;;;;;2.92;2.08;;;;;;;;;;4214244;28;20044;-36
2022/03/23 00:10:44;;;;;;;3.28;2.15;;;;;;;;;;4212880;28;20101;-36
2022/03/23 00:12:45;;;;;;;2.03;1.83;;;;;;;;;;4214209;28;20076;-36
2022/03/23 00:14:46;;;;;;;2.38;1.80;;;;;;;;;;4214137;28;20424;-36
2022/03/23 00:16:47;;;;;;;2.35;2.10;;;;;;;;;;4213572;28;20059;-36
2022/03/23 00:18:48;;;;;;;2.08;1.88;;;;;;;;;;4214080;28;20104;-35
2022/03/23 00:20:49;;;;;;;2.78;2.05;;;;;;;;;;4214198;28;20055;-36
2022/03/23 00:22:50;;;;;;;1.70;1.60;;;;;;;;;;4213804;28;20094;-37
2022/03/23 00:24:51;;;;;;;2.92;2.05;;;;;;;;;;4213958;28;20064;-36
2022/03/23 00:26:52;;;;;;;2.17;1.85;;;;;;;;;;4213723;28;20081;-36
2022/03/23 00:28:54;;;;;;;2.22;1.88;;;;;;;;;;4212120;28;20060;-36
2022/03/23 00:30:55;;;;;;;2.40;2.08;;;;;;;;;;4213766;28;20094;-36
2022/03/23 00:32:57;;;;;;;2.53;2.08;;;;;;;;;;4213329;28;20052;-35
2022/03/23 00:34:58;;;;;;;1.98;1.77;;;;;;;;;;4213619;28;20075;-36
2022/03/23 00:37:00;;;;;;;1.92;1.77;;;;;;;;;;4213843;28;20052;-36
2022/03/23 00:39:01;;;;;;;1.73;1.60;;;;;;;;;;4212342;28;20056;-36
2022/03/23 00:41:06;;;;;;;2.10;1.90;;;;;;;;;;4213695;28;20052;-36
2022/03/23 00:43:07;;;;;;;1.92;1.70;;;;;;;;;;4213526;28;20059;-36
2022/03/23 00:45:11;;;;;;;2.08;1.88;;;;;;;;;;4212220;28;20052;-36
2022/03/23 00:47:12;;;;;;;2.67;2.05;;;;;;;;;;4212852;28;20101;-36
2022/03/23 00:49:13;;;;;;;2.15;1.95;;;;;;;;;;4213523;28;20131;-36
2022/03/23 00:51:14;;;;;;;1.80;1.65;;;;;;;;;;4213837;28;20060;-36
2022/03/23 00:53:16;;;;;;;2.13;1.92;;;;;;;;;;4213282;28;20056;-36
2022/03/23 00:55:18;;;;;;;1.95;1.67;;;;;;;;;;4212017;28;20467;-36
2022/03/23 00:57:19;;;;;;;2.15;1.67;;;;;;;;;;4213317;28;20095;-36
2022/03/23 00:59:22;;;;;;;2.40;1.88;;;;;;;;;;4213327;28;20096;-36
2022/03/23 01:01:24;;;;;;;2.63;2.00;;;;;;;;;;4212058;28;20498;-36
2022/03/23 01:03:25;;;;;;;2.60;1.85;;;;;;;;;;4213189;28;20051;-36
2022/03/23 01:05:26;;;;;;;1.88;1.75;;;;;;;;;;4213458;28;20056;-36
2022/03/23 01:07:27;;;;;;;2.28;1.80;;;;;;;;;;4212945;28;20070;-36
2022/03/23 01:09:29;;;;;;;2.00;1.83;;;;;;;;;;4213202;28;20484;-36
2022/03/23 01:11:31;;;;;;;2.17;1.63;;;;;;;;;;4213048;28;20051;-36
2022/03/23 01:13:32;;;;;;;2.35;1.75;;;;;;;;;;4213057;28;20672;-36
2022/03/23 01:15:33;;;;;;;2.10;1.90;;;;;;;;;;4178660;28;20053;-36
2022/03/23 01:17:34;;;;;;;2.45;2.25;;;;;;;;;;4212634;28;20098;-36
2022/03/23 01:19:35;;;;;;;2.13;1.83;;;;;;;;;;4213110;28;20094;-36
2022/03/23 01:21:36;;;;;;;2.00;1.80;;;;;;;;;;4213286;28;20440;-36
2022/03/23 01:23:37;;;;;;;2.35;2.05;;;;;;;;;;4212799;28;20048;-36
2022/03/23 01:25:38;;;;;;;1.83;1.70;;;;;;;;;;4213314;28;20120;-37
2022/03/23 01:27:41;;;;;;;2.10;1.88;;;;;;;;;;4211591;28;20613;-36
2022/03/23 01:29:43;;;;;;;2.15;1.95;;;;;;;;;;4213040;28;20055;-36
2022/03/23 01:31:43;;;;;;;2.25;1.80;;;;;;;;;;4211482;28;20059;-36
2022/03/23 01:33:44;;;;;;;1.63;1.52;;;;;;;;;;4211593;28;20308;-35
2022/03/23 01:35:47;;;;;;;2.25;2.00;;;;;;;;;;4212845;28;20040;-36
2022/03/23 01:37:51;;;;;;;2.10;1.90;;;;;;;;;;4211591;28;20449;-36
2022/03/23 01:39:52;;;;;;;2.13;1.85;;;;;;;;;;4212056;28;20067;-35
2022/03/23 01:41:53;;;;;;;1.83;1.73;;;;;;;;;;4212960;28;20048;-36
2022/03/23 01:43:54;;;;;;;1.95;1.63;;;;;;;;;;4211622;28;20051;-36
2022/03/23 01:45:56;;;;;;;2.03;1.80;;;;;;;;;;4212852;28;20056;-36
2022/03/23 01:47:57;;;;;;;2.10;1.90;;;;;;;;;;4210923;28;20139;-35
2022/03/23 01:50:04;;;;;;;2.22;1.98;;;;;;;;;;4212651;28;20052;-36
2022/03/23 01:52:08;;;;;;;2.22;2.03;;;;;;;;;;4211377;28;20048;-35
2022/03/23 01:54:08;;;;;;;2.33;1.88;;;;;;;;;;4211719;28;20093;-36
2022/03/23 01:56:11;;;;;;;2.25;1.98;;;;;;;;;;4213004;28;20510;-36
2022/03/23 01:58:12;;;;;;;2.17;1.83;;;;;;;;;;4211342;28;20048;-36
2022/03/23 02:00:16;;;;;;;2.10;1.85;;;;;;;;;;4211462;28;20056;-36
2022/03/23 02:02:21;;;;;;;2.17;1.98;;;;;;;;;;4211163;28;20060;-36
2022/03/23 02:04:29;;;;;;;2.28;1.77;;;;;;;;;;4211346;28;20576;-36
2022/03/23 02:06:31;;;;;;;2.20;2.00;;;;;;;;;;4212985;28;20241;-36
2022/03/23 02:08:34;;;;;;;2.90;2.00;;;;;;;;;;4211200;28;20044;-36
2022/03/23 02:10:35;;;;;;;2.22;1.50;;;;;;;;;;4211250;28;20056;-36
2022/03/23 02:12:47;;;;;;;1.60;1.50;;;;;;;;;;4211324;28;20044;-36
2022/03/23 02:14:48;;;;;;;2.30;1.95;;;;;;;;;;4211317;28;20040;-36
2022/03/23 02:16:51;;;;;;;2.30;1.85;;;;;;;;;;4212103;28;20079;-36
2022/03/23 02:18:51;;;;;;;1.77;1.50;;;;;;;;;;4211544;28;20105;-36
2022/03/23 02:20:52;;;;;;;2.50;2.13;;;;;;;;;;4211185;28;20052;-36
2022/03/23 02:22:53;;;;;;;2.45;2.13;;;;;;;;;;4212710;28;20097;-36
2022/03/23 02:24:57;;;;;;;1.55;1.45;;;;;;;;;;4211253;28;20435;-37
2022/03/23 02:26:59;;;;;;;1.98;1.77;;;;;;;;;;4212399;28;20063;-36
2022/03/23 02:29:00;;;;;;;2.00;1.80;;;;;;;;;;4212626;28;20044;-36
2022/03/23 02:31:02;;;;;;;1.67;1.58;;;;;;;;;;4212491;28;20051;-36
2022/03/23 02:33:03;;;;;;;2.13;1.65;;;;;;;;;;4210750;28;20044;-36
2022/03/23 02:35:04;;;;;;;1.85;1.70;;;;;;;;;;4212283;28;20093;-36
2022/03/23 02:37:05;;;;;;;1.98;1.75;;;;;;;;;;4212436;28;20479;-36
2022/03/23 02:39:06;;;;;;;2.47;1.88;;;;;;;;;;4212345;28;20052;-36
2022/03/23 02:41:08;;;;;;;2.22;1.92;;;;;;;;;;4212359;28;20100;-36
2022/03/23 02:43:09;;;;;;;2.45;1.75;;;;;;;;;;4212602;28;20048;-36
2022/03/23 02:45:11;;;;;;;2.00;1.77;;;;;;;;;;4212594;28;20127;-36
2022/03/23 02:47:12;;;;;;;1.75;1.60;;;;;;;;;;4212087;28;20105;-36
2022/03/23 02:49:16;;;;;;;2.13;1.63;;;;;;;;;;4212379;28;20529;-36
2022/03/23 02:51:18;;;;;;;2.05;1.92;;;;;;;;;;4214175;28;20101;-36
2022/03/23 03:02:47;;;;;;;;;;;;;;;;;;4214113;28;20101;-36
2022/03/23 03:04:48;;;;;;;2.00;1.80;;;;;;;;;;4215481;28;19916;-36
2022/03/23 03:06:49;;;;;;;2.10;1.85;;;;;;;;;;4215435;28;20097;-36
2022/03/23 03:08:51;;;;;;;2.40;1.70;;;;;;;;;;4215034;28;20052;-36
2022/03/23 03:10:52;;;;;;;2.65;2.03;;;;;;;;;;4214918;28;20392;-36
2022/03/23 03:12:53;;;;;;;2.08;1.65;;;;;;;;;;4215188;28;20051;-36
2022/03/23 03:14:54;;;;;;;2.50;2.05;;;;;;;;;;4215266;28;20052;-36
2022/03/23 03:16:55;;;;;;;1.92;1.77;;;;;;;;;;4214535;28;20048;-36
2022/03/23 03:18:56;;;;;;;2.15;1.73;;;;;;;;;;4215257;28;20059;-36
2022/03/23 03:20:57;;;;;;;2.05;1.75;;;;;;;;;;4215142;28;20088;-36
2022/03/23 03:22:58;;;;;;;2.30;2.00;;;;;;;;;;4214793;28;20475;-36
2022/03/23 03:24:59;;;;;;;1.50;1.40;;;;;;;;;;4215171;28;20098;-36
2022/03/23 03:27:00;;;;;;;1.90;1.63;;;;;;;;;;4214980;28;20055;-36
2022/03/23 03:29:02;;;;;;;2.13;1.88;;;;;;;;;;4214828;28;20079;-36
2022/03/23 03:31:05;;;;;;;1.92;1.42;;;;;;;;;;4214837;28;20056;-36
2022/03/23 03:33:06;;;;;;;2.08;1.88;;;;;;;;;;4213219;28;20040;-36
2022/03/23 03:35:07;;;;;;;1.83;1.73;;;;;;;;;;4214658;28;20051;-36
2022/03/23 03:37:08;;;;;;;3.53;2.00;;;;;;;;;;4213389;28;20670;-36
2022/03/23 03:39:09;;;;;;;1.65;1.55;;;;;;;;;;4214890;28;20054;-36
2022/03/23 03:41:10;;;;;;;1.90;1.70;;;;;;;;;;4214944;28;20131;-36
2022/03/23 03:43:11;;;;;;;1.52;1.42;;;;;;;;;;4214542;28;20452;-35
2022/03/23 03:45:12;;;;;;;1.70;1.60;;;;;;;;;;4214865;28;20471;-35
2022/03/23 03:47:13;;;;;;;2.60;1.55;;;;;;;;;;4213916;28;20182;-36
2022/03/23 03:49:15;;;;;;;2.50;1.67;;;;;;;;;;4214720;28;20044;-36
2022/03/23 03:51:16;;;;;;;1.60;1.50;;;;;;;;;;4214565;28;20499;-36
2022/03/23 03:53:17;;;;;;;2.53;1.70;;;;;;;;;;4214334;28;20044;-35
2022/03/23 03:55:18;;;;;;;1.85;1.73;;;;;;;;;;4214409;28;20178;-36
2022/03/23 03:57:19;;;;;;;1.77;1.48;;;;;;;;;;4214287;28;20060;-35
2022/03/23 03:59:20;;;;;;;2.40;2.20;;;;;;;;;;4213246;28;20044;-36
2022/03/23 04:01:21;;;;;;;2.00;1.80;;;;;;;;;;4214308;28;20055;-36
2022/03/23 04:03:22;;;;;;;1.65;1.55;;;;;;;;;;4212952;28;20093;-36
2022/03/23 04:05:23;;;;;;;2.22;1.83;;;;;;;;;;4213004;28;20550;-36
2022/03/23 04:07:24;;;;;;;1.50;1.40;;;;;;;;;;4214360;28;20535;-36
2022/03/23 04:09:24;;;;;;;1.67;1.42;;;;;;;;;;4213940;28;20067;-36
2022/03/23 04:11:26;;;;;;;2.40;1.90;;;;;;;;;;4212790;28;20051;-36
2022/03/23 04:13:27;;;;;;;2.25;1.73;;;;;;;;;;4214328;28;20503;-36
2022/03/23 04:15:27;;;;;;;2.53;2.10;;;;;;;;;;4214110;28;20111;-36
2022/03/23 04:17:28;;;;;;;1.65;1.50;;;;;;;;;;4213813;28;20470;-36
2022/03/23 04:19:29;;;;;;;2.10;1.65;;;;;;;;;;4214373;28;20569;-36
2022/03/23 04:21:30;;;;;;;2.03;1.70;;;;;;;;;;4214256;28;20048;-36
2022/03/23 04:23:32;;;;;;;2.30;2.10;;;;;;;;;;4213900;28;20043;-36
2022/03/23 04:25:33;;;;;;;1.88;1.77;;;;;;;;;;4214183;28;20044;-36
2022/03/23 04:27:34;;;;;;;3.00;1.83;;;;;;;;;;4213711;28;20109;-35
2022/03/23 04:29:35;;;;;;;2.28;1.80;;;;;;;;;;4212771;28;20047;-35
2022/03/23 04:31:36;;;;;;;1.98;1.70;;;;;;;;;;4213783;28;20069;-36
2022/03/23 04:33:37;;;;;;;1.80;1.65;;;;;;;;;;4213275;28;20522;-36
2022/03/23 04:35:38;;;;;;;1.92;1.70;;;;;;;;;;4213748;28;20092;-36
2022/03/23 04:37:42;;;;;;;2.20;1.80;;;;;;;;;;4213890;28;20472;-36
2022/03/23 04:39:43;;;;;;;1.85;1.70;;;;;;;;;;4213639;28;20040;-35
2022/03/23 04:41:44;;;;;;;1.77;1.60;;;;;;;;;;4213875;28;20048;-36
2022/03/23 04:43:45;;;;;;;2.45;1.70;;;;;;;;;;4213845;28;20589;-36
2022/03/23 04:45:46;;;;;;;1.63;1.50;;;;;;;;;;4213929;28;20174;-36
2022/03/23 04:47:47;;;;;;;1.95;1.65;;;;;;;;;;4213260;28;20131;-36
2022/03/23 04:49:48;;;;;;;1.85;1.55;;;;;;;;;;4213498;28;20052;-36
2022/03/23 04:51:51;;;;;;;2.58;1.80;;;;;;;;;;4213694;28;20051;-36
2022/03/23 04:53:52;;;;;;;1.92;1.70;;;;;;;;;;4213601;28;20048;-35
2022/03/23 04:55:52;;;;;;;2.58;1.83;;;;;;;;;;4213690;28;20545;-37
2022/03/23 04:57:53;;;;;;;1.90;1.75;;;;;;;;;;4213559;28;20134;-36
2022/03/23 04:59:55;;;;;;;1.77;1.52;;;;;;;;;;4213547;28;20056;-36
2022/03/23 05:01:56;;;;;;;1.95;1.63;;;;;;;;;;4213142;28;20056;-36
2022/03/23 05:03:57;;;;;;;1.95;1.75;;;;;;;;;;4213441;28;20068;-36
2022/03/23 05:05:58;;;;;;;1.70;1.60;;;;;;;;;;4212103;28;20055;-36
2022/03/23 05:07:59;;;;;;;1.73;1.63;;;;;;;;;;4211881;28;20055;-36
2022/03/23 05:10:00;;;;;;;2.17;1.90;;;;;;;;;;4211928;28;20044;-36
2022/03/23 05:12:01;;;;;;;1.60;1.50;;;;;;;;;;4213174;28;20089;-36
2022/03/23 05:14:02;;;;;;;2.03;1.73;;;;;;;;;;4212950;28;20051;-36
2022/03/23 05:16:03;;;;;;;1.95;1.52;;;;;;;;;;4213353;28;20082;-36
2022/03/23 05:18:05;;;;;;;2.17;1.98;;;;;;;;;;4212526;28;20431;-36
2022/03/23 05:20:07;;;;;;;2.05;1.85;;;;;;;;;;4213021;28;20055;-36
2022/03/23 05:22:09;;;;;;;2.53;1.77;;;;;;;;;;4213162;28;20055;-36
2022/03/23 05:24:10;;;;;;;1.92;1.73;;;;;;;;;;4213300;28;20056;-36
2022/03/23 05:26:11;;;;;;;1.98;1.83;;;;;;;;;;4213294;28;20479;-36
2022/03/23 05:28:13;;;;;;;2.65;1.58;;;;;;;;;;4212784;28;20097;-36
2022/03/23 05:30:14;;;;;;;2.08;1.67;;;;;;;;;;4212886;28;20188;-36
2022/03/23 05:32:18;;;;;;;1.98;1.40;;;;;;;;;;4212680;28;20102;-36
2022/03/23 05:34:19;;;;;;;1.95;1.75;;;;;;;;;;4213150;28;20048;-37
2022/03/23 05:36:20;;;;;;;1.60;1.50;;;;;;;;;;4212842;28;20059;-36
2022/03/23 05:38:20;;;;;;;1.40;1.30;;;;;;;;;;4213065;28;20051;-36
2022/03/23 05:40:22;;;;;;;2.72;1.70;;;;;;;;;;4212968;28;20082;-36
2022/03/23 05:42:23;;;;;;;1.92;1.73;;;;;;;;;;4212787;28;20097;-36
2022/03/23 05:44:23;;;;;;;1.55;1.40;;;;;;;;;;4213179;28;20239;-36
2022/03/23 05:46:25;;;;;;;1.80;1.65;;;;;;;;;;4213077;28;20540;-35
2022/03/23 05:48:26;;;;;;;1.90;1.67;;;;;;;;;;4211117;28;20052;-36
2022/03/23 05:50:27;;;;;;;1.95;1.60;;;;;;;;;;4212951;28;20048;-36
2022/03/23 05:52:28;;;;;;;2.30;1.70;;;;;;;;;;4211282;28;20048;-35
2022/03/23 05:54:29;;;;;;;3.42;1.92;;;;;;;;;;4212601;28;20086;-36
2022/03/23 05:56:30;;;;;;;1.92;1.63;;;;;;;;;;4212717;28;20089;-36
2022/03/23 05:58:31;;;;;;;2.03;1.70;;;;;;;;;;4212536;28;20098;-35
2022/03/23 06:00:32;;;;;;;2.05;1.70;;;;;;;;;;4209999;28;20094;-36
2022/03/23 06:02:33;;;;;;;1.70;1.60;;;;;;;;;;4208835;28;20075;-36
2022/03/23 06:04:34;;;;;;;1.95;1.40;;;;;;;;;;4211063;28;20090;-36
2022/03/23 06:06:35;;;;;;;1.48;1.38;;;;;;;;;;4210790;28;20109;-35
2022/03/23 06:08:36;;;;;;;2.00;1.80;;;;;;;;;;4210347;28;20183;-36
2022/03/23 06:10:36;;;;;;;2.13;1.70;;;;;;;;;;4210437;28;20108;-36
2022/03/23 06:12:38;;;;;;;2.22;1.60;;;;;;;;;;4210161;28;20058;-36
2022/03/23 06:14:42;;;;;;;1.98;1.63;;;;;;;;;;4210877;28;20055;-35
2022/03/23 06:16:43;;;;;;;1.98;1.70;;;;;;;;;;4209319;28;20043;-36
2022/03/23 06:18:43;;;;;;;1.92;1.83;;;;;;;;;;4209943;28;20525;-36
2022/03/23 06:20:45;;;;;;;2.08;1.83;;;;;;;;;;4210404;28;20162;-35
2022/03/23 06:22:45;;;;;;;3.63;1.83;;;;;;;;;;4210484;28;20487;-35
2022/03/23 06:24:46;;;;;;;2.75;1.73;;;;;;;;;;4210152;28;20056;-36
2022/03/23 06:26:47;;;;;;;1.92;1.63;;;;;;;;;;4212762;28;20055;-36
2022/03/23 06:28:48;;;;;;;2.30;1.60;;;;;;;;;;4213909;28;20052;-36
2022/03/23 06:30:50;;;;;;;1.35;1.25;;;;;;;;;;4213889;28;20359;-36
2022/03/23 06:32:51;;;;;;;2.25;1.80;;;;;;;;;;4213146;28;20453;-35
2022/03/23 06:34:52;;;;;;;3.08;1.90;;;;;;;;;;4213499;28;20052;-35
2022/03/23 06:36:53;;;;;;;3.10;1.77;;;;;;;;;;4211624;28;20079;-35
2022/03/23 06:38:54;;;;;;;2.72;1.73;;;;;;;;;;4212778;28;20144;-35
2022/03/23 06:40:55;;;;;;;2.05;1.63;;;;;;;;;;4213158;28;20425;-36
2022/03/23 06:42:56;;;;;;;2.83;1.58;;;;;;;;;;4213363;28;20052;-35
2022/03/23 06:44:57;;;;;;;2.08;1.73;;;;;;;;;;4213284;28;20060;-36
2022/03/23 06:46:58;;;;;;;2.00;1.70;;;;;;;;;;4212921;28;20526;-35
2022/03/23 06:48:59;;;;;;;2.47;2.00;;;;;;;;;;4212839;28;20132;-36
2022/03/23 06:50:59;;;;;;;2.22;1.60;;;;;;;;;;4213245;28;20419;-36
2022/03/23 06:53:01;;;;;;;2.75;1.83;;;;;;;;;;4203739;28;20087;-36
2022/03/23 06:55:02;;;;;;;2.22;1.80;;;;;;;;;;4206890;28;20052;-36
2022/03/23 06:57:03;;;;;;;2.08;1.60;;;;;;;;;;4210401;28;20093;-35
2022/03/23 06:59:04;;;;;;;2.17;1.85;;;;;;;;;;4211975;28;20474;-36
2022/03/23 07:01:05;;;;;;;3.30;2.13;;;;;;;;;;4207256;28;20090;-35
2022/03/23 07:03:06;;;;;;;2.72;1.80;;;;;;;;;;4203189;28;20131;-36
2022/03/23 07:05:08;;;;;;;2.40;1.55;;;;;;;;;;4205272;28;20060;-36
2022/03/23 07:07:09;;;;;;;2.35;1.88;;;;;;;;;;4203325;28;20459;-35
2022/03/23 07:11:30;;;;;;;2.97;2.00;;;;;;;;;;4203464;28;20098;-35
2022/03/23 07:13:31;;;;;;;3.15;1.90;;;;;;;;;;4203025;28;20040;-35
2022/03/23 07:15:32;;;;;;;3.90;1.65;;;;;;;;;;4203452;28;20040;-35
2022/03/23 07:17:33;;;;;;;3.75;2.30;;;;;;;;;;4208804;28;20552;-35
2022/03/23 07:19:34;;;;;;;2.25;1.75;;;;;;;;;;4205487;28;20142;-36
2022/03/23 07:21:35;;;;;;;1.88;1.50;;;;;;;;;;4204064;28;20499;-36
2022/03/23 07:23:36;;;;;;;2.72;1.67;;;;;;;;;;4207560;28;20058;-35
2022/03/23 07:25:36;;;;;;;2.88;1.60;;;;;;;;;;4203520;28;20098;-36
2022/03/23 07:27:38;;;;;;;4.15;1.88;;;;;;;;;;4200433;28;20672;-35
2022/03/23 07:29:40;;;;;;;4.72;1.88;;;;;;;;;;4208187;28;20058;-35
2022/03/23 07:31:41;;;;;;;3.45;1.77;;;;;;;;;;4203417;28;20093;-35
2022/03/23 07:33:42;;;;;;;4.05;2.00;;;;;;;;;;4198836;28;20048;-36
2022/03/23 07:35:43;;;;;;;3.10;1.60;;;;;;;;;;4198387;28;20048;-35
2022/03/23 07:37:44;;;;;;;3.22;1.92;;;;;;;;;;4192493;28;20083;-36
2022/03/23 07:39:45;;;;;;;6.93;2.55;;;;;;;;;;4194024;28;20131;-36
2022/03/23 07:41:50;;;;;;;3.75;2.03;;;;;;;;;;4200589;28;20097;-36
2022/03/23 07:43:51;;;;;;;4.05;1.98;;;;;;;;;;4194249;28;20057;-36
2022/03/23 07:45:52;;;;;;;6.38;2.13;;;;;;;;;;4186439;28;20454;-36
2022/03/23 07:47:53;;;;;;;5.50;2.38;;;;;;;;;;4191892;28;20098;-36
2022/03/23 07:49:54;;;;;;;3.10;2.00;;;;;;;;;;4198285;28;20044;-35
2022/03/23 07:51:55;;;;;;;5.47;2.20;;;;;;;;;;4193614;28;20129;-36
2022/03/23 07:53:56;;;;;;;4.78;2.22;;;;;;;;;;4191090;28;20796;-36
2022/03/23 07:55:57;;;;;;;6.57;2.03;;;;;;;;;;4185393;28;20109;-36
2022/03/23 07:57:58;;;;;;;5.25;2.10;;;;;;;;;;4193450;28;20040;-36
2022/03/23 07:59:59;;;;;;;6.25;2.20;;;;;;;;;;4185398;28;20052;-34
2022/03/23 08:02:00;;;;;;;4.47;1.92;;;;;;;;;;4178635;28;20153;-36
2022/03/23 08:04:01;;;;;;;7.78;2.58;;;;;;;;;;4185751;28;20055;-35
2022/03/23 08:06:02;;;;;;;7.18;2.30;;;;;;;;;;4184325;28;20451;-36
2022/03/23 08:08:03;;;;;;;6.22;2.97;;;;;;;;;;4170905;28;20106;-35
2022/03/23 08:10:04;;;;;;;5.63;1.88;;;;;;;;;;4190038;28;20053;-35
2022/03/23 08:12:05;;;;;;;4.53;2.13;;;;;;;;;;4190014;28;20488;-36
2022/03/23 08:14:06;;;;;;;8.55;2.03;;;;;;;;;;4188390;28;20057;-36
2022/03/23 08:16:09;;;;;;;7.40;2.53;;;;;;;;;;4188894;28;20568;-36
2022/03/23 08:18:10;;;;;;;5.53;2.42;;;;;;;;;;4190684;28;20056;-35
2022/03/23 08:22:36;;;;;;;6.13;2.38;;;;;;;;;;4187613;28;20713;-36
2022/03/23 08:24:39;;;;;;;4.57;2.45;;;;;;;;;;4185107;28;20064;-36
2022/03/23 08:26:41;;;;;;;5.82;2.35;;;;;;;;;;4184487;28;20125;-36
2022/03/23 08:28:43;;;;;;;5.40;2.13;;;;;;;;;;4187998;28;20112;-35
2022/03/23 08:30:44;;;;;;;5.10;1.77;;;;;;;;;;4189614;28;20157;-36
2022/03/23 08:32:47;;;;;;;7.10;2.50;;;;;;;;;;4187041;28;20373;-36
2022/03/23 08:34:49;;;;;;;5.53;2.53;;;;;;;;;;4178045;28;20121;-36
2022/03/23 08:36:54;;;;;;;4.13;1.85;;;;;;;;;;4186718;28;20059;-36
2022/03/23 08:38:58;;;;;;;3.20;1.77;;;;;;;;;;4189684;28;20062;-37
2022/03/23 08:41:00;;;;;;;4.00;2.00;;;;;;;;;;4182639;28;20185;-36
2022/03/23 08:43:03;;;;;;;4.75;1.95;;;;;;;;;;4186279;28;20056;-36
2022/03/23 08:45:06;;;;;;;5.53;2.25;;;;;;;;;;4186011;28;20052;-37
2022/03/23 08:47:09;;;;;;;5.57;1.92;;;;;;;;;;4189954;28;20055;-35
2022/03/23 08:49:12;;;;;;;5.85;2.00;;;;;;;;;;4172353;28;20044;-34
2022/03/23 08:51:15;;;;;;;3.47;1.70;;;;;;;;;;4184865;28;20075;-35
2022/03/23 08:53:19;;;;;;;3.10;1.95;;;;;;;;;;4181831;28;20048;-36
2022/03/23 08:55:23;;;;;;;3.45;1.70;;;;;;;;;;4183851;28;20441;-36
2022/03/23 08:57:26;;;;;;;6.45;2.28;;;;;;;;;;4176973;28;20094;-35
2022/03/23 08:59:30;;;;;;;3.95;1.70;;;;;;;;;;4179716;28;20052;-33
2022/03/23 09:01:32;;;;;;;4.78;1.60;;;;;;;;;;4185683;28;20101;-34
2022/03/23 09:03:35;;;;;;;6.63;2.10;;;;;;;;;;4188615;28;20063;-33
2022/03/23 09:05:38;;;;;;;4.07;1.75;;;;;;;;;;4191003;28;20139;-34
2022/03/23 09:07:42;;;;;;;3.50;1.60;;;;;;;;;;4187136;28;20109;-34
2022/03/23 09:09:44;;;;;;;6.05;1.60;;;;;;;;;;4188107;28;20052;-33
2022/03/23 09:11:46;;;;;;;4.70;1.63;;;;;;;;;;4185170;28;20053;-33
2022/03/23 09:13:49;;;;;;;4.38;1.35;;;;;;;;;;4186059;28;20093;-34
2022/03/23 09:15:50;;;;;;;4.97;1.70;;;;;;;;;;4192487;28;20044;-34
2022/03/23 09:17:58;;;;;;;3.83;1.42;;;;;;;;;;4187620;28;20052;-34
2022/03/23 09:20:02;;;;;;;1.98;1.50;;;;;;;;;;4190280;28;20372;-34
2022/03/23 09:22:03;;;;;;;6.00;1.70;;;;;;;;;;4188723;28;20656;-34
2022/03/23 09:24:11;;;;;;;2.17;1.60;;;;;;;;;;4191880;28;20484;-34
2022/03/23 09:26:14;;;;;;;2.95;1.42;;;;;;;;;;4187614;28;20056;-34
2022/03/23 09:28:17;;;;;;;2.45;1.58;;;;;;;;;;4186062;28;21039;-34
2022/03/23 09:30:20;;;;;;;4.90;1.30;;;;;;;;;;4189481;28;20052;-34
2022/03/23 09:32:23;;;;;;;2.50;1.40;;;;;;;;;;4186202;28;20056;-34
2022/03/23 09:34:25;;;;;;;3.25;1.58;;;;;;;;;;4171950;28;20482;-34
2022/03/23 09:38:51;;;;;;;2.42;1.75;;;;;;;;;;4189482;28;20056;-34
2022/03/23 09:40:56;;;;;;;3.42;1.80;;;;;;;;;;4187313;28;20188;-34
2022/03/23 09:43:08;;;;;;;1.60;1.20;;;;;;;;;;4182583;28;20056;-34
2022/03/23 09:45:19;;;;;;;2.55;1.40;;;;;;;;;;4183165;28;20063;-34
2022/03/23 09:47:23;;;;;;;2.47;1.50;;;;;;;;;;4186363;28;20043;-34
2022/03/23 09:49:26;;;;;;;2.20;1.33;;;;;;;;;;4185528;28;20052;-34
2022/03/23 09:51:31;;;;;;;2.65;1.50;;;;;;;;;;4184814;28;20055;-34
2022/03/23 09:53:33;;;;;;;4.43;1.40;;;;;;;;;;4196295;28;20105;-34
2022/03/23 09:55:36;;;;;;;2.35;1.42;;;;;;;;;;4184198;28;20546;-34
2022/03/23 09:57:39;;;;;;;5.65;1.60;;;;;;;;;;4177576;28;20048;-33
2022/03/23 09:59:41;;;;;;;3.58;1.40;;;;;;;;;;4176870;28;20322;-34
2022/03/23 10:01:46;;;;;;;2.20;1.60;;;;;;;;;;4181429;28;20113;-33
2022/03/23 10:03:48;;;;;;;3.00;1.38;;;;;;;;;;4187761;28;20114;-34
2022/03/23 10:06:09;;;;;;;3.55;1.58;;;;;;;;;;4192455;28;20487;-34
2022/03/23 10:08:25;;;;;;;1.38;1.00;;;;;;;;;;4186576;28;20461;-33
2022/03/23 10:10:47;;;;;;;1.73;1.13;;;;;;;;;;4191619;28;20108;-33
2022/03/23 10:12:48;;;;;;;;;;;;;;;;;;4184068;28;20079;-33
2022/03/23 10:14:54;;;;;;;2.38;1.30;;;;;;;;;;4185872;28;20544;-33
2022/03/23 10:17:15;;;;;;;2.58;1.25;;;;;;;;;;4182056;28;20048;-34
2022/03/23 10:19:17;;;;;;;4.35;1.55;;;;;;;;;;4181446;28;21328;-34
2022/03/23 10:21:23;;;;;;;2.35;1.20;;;;;;;;;;4182062;28;20052;-34
2022/03/23 10:23:27;;;;;;;1.95;1.25;;;;;;;;;;4180033;28;20052;-34
2022/03/23 10:25:29;;;;;;;2.55;1.40;;;;;;;;;;4185032;28;20056;-34
2022/03/23 10:27:33;;;;;;;2.03;1.40;;;;;;;;;;4182659;28;20056;-34
2022/03/23 10:29:42;;;;;;;1.83;1.25;;;;;;;;;;4182854;28;20109;-33
2022/03/23 10:31:43;;;;;;;3.72;2.05;;;;;;;;;;4182548;28;20056;-34
2022/03/23 10:33:56;;;;;;;2.70;1.13;;;;;;;;;;4180139;28;20044;-33
2022/03/23 10:36:00;;;;;;;3.78;1.38;;;;;;;;;;4187428;28;20051;-34
2022/03/23 10:38:11;;;;;;;2.30;1.48;;;;;;;;;;4187009;28;20074;-34
2022/03/23 10:40:17;;;;;;;2.45;0.98;;;;;;;;;;4187040;28;20376;-35
2022/03/23 10:42:28;;;;;;;2.17;1.35;;;;;;;;;;4196044;28;20044;-36
2022/03/23 10:44:29;;;;;;;4.47;1.50;;;;;;;;;;4186226;28;20479;-35
2022/03/23 10:46:30;;;;;;;4.93;1.60;;;;;;;;;;4187757;28;20044;-32
2022/03/23 10:48:31;;;;;;;2.33;1.40;;;;;;;;;;4183868;28;20567;-33
2022/03/23 10:50:32;;;;;;;5.15;1.30;;;;;;;;;;4186386;28;20048;-32
2022/03/23 10:52:33;;;;;;;2.97;1.33;;;;;;;;;;4180665;28;20045;-33
2022/03/23 10:54:35;;;;;;;2.20;1.50;;;;;;;;;;4189652;28;20462;-34
2022/03/23 10:56:36;;;;;;;1.52;1.02;;;;;;;;;;4182135;28;20137;-34
2022/03/23 10:58:38;;;;;;;1.60;1.38;;;;;;;;;;4189511;28;20051;-34
2022/03/23 11:00:39;;;;;;;2.05;1.33;;;;;;;;;;4190549;28;20452;-34
2022/03/23 11:02:47;;;;;;;1.55;1.35;;;;;;;;;;4187961;28;20048;-34
2022/03/23 11:04:54;;;;;;;4.20;1.20;;;;;;;;;;4183025;28;20125;-33
2022/03/23 11:07:24;;;;;;;2.10;1.52;;;;;;;;;;4193044;28;20079;-34
2022/03/23 11:16:55;;;;;;;1.48;1.30;;;;;;;;;;4196766;28;20113;-33
2022/03/23 11:18:56;;;;;;;1.85;1.60;;;;;;;;;;4189463;28;20059;-33
2022/03/23 11:20:57;;;;;;;2.47;1.40;;;;;;;;;;4191782;28;20410;-34
2022/03/23 11:23:15;;;;;;;2.75;1.30;;;;;;;;;;4195314;28;20514;-34
2022/03/23 11:25:16;;;;;;;2.35;1.10;;;;;;;;;;4185422;28;20453;-36
2022/03/23 11:27:18;;;;;;;2.17;1.20;;;;;;;;;;4192675;28;20105;-34
2022/03/23 11:29:19;;;;;;;1.77;1.30;;;;;;;;;;4190057;28;20651;-34
2022/03/23 11:31:20;;;;;;;1.50;1.30;;;;;;;;;;4190503;28;20044;-34
2022/03/23 11:33:23;;;;;;;3.20;1.52;;;;;;;;;;4194845;28;20047;-33
2022/03/23 11:35:25;;;;;;;1.95;1.38;;;;;;;;;;4189854;28;20101;-33
2022/03/23 11:37:28;;;;;;;1.33;0.93;;;;;;;;;;4187192;28;20051;-33
2022/03/23 11:39:30;;;;;;;1.25;1.00;;;;;;;;;;4185987;28;20766;-34
2022/03/23 11:41:34;;;;;;;2.17;1.17;;;;;;;;;;4173030;28;20059;-33
2022/03/23 11:43:39;;;;;;;3.00;1.40;;;;;;;;;;4184877;28;20199;-34
2022/03/23 11:45:40;;;;;;;1.45;1.20;;;;;;;;;;4186539;28;20109;-34
2022/03/23 11:47:50;;;;;;;3.03;1.25;;;;;;;;;;4185295;28;20285;-34
2022/03/23 11:50:01;;;;;;;1.65;1.10;;;;;;;;;;4187248;28;20056;-33
2022/03/23 11:52:06;;;;;;;1.52;1.17;;;;;;;;;;4185555;28;20074;-34
2022/03/23 11:54:26;;;;;;;1.38;1.25;;;;;;;;;;4177918;28;20052;-33
2022/03/23 11:57:00;;;;;;;1.20;1.10;;;;;;;;;;4175208;28;20048;-34
2022/03/23 11:59:19;;;;;;;1.63;1.20;;;;;;;;;;4172129;28;20053;-34
2022/03/23 12:01:20;;;;;;;1.60;1.15;;;;;;;;;;4172253;28;20078;-34
2022/03/23 12:03:39;;;;;;;3.00;1.20;;;;;;;;;;4173925;28;20148;-34
2022/03/23 12:06:03;;;;;;;2.00;1.10;;;;;;;;;;4180448;28;20082;-34
2022/03/23 12:08:04;;;;;;;2.95;1.25;;;;;;;;;;4184417;28;20054;-34
2022/03/23 12:10:21;;;;;;;1.33;1.23;;;;;;;;;;4183076;28;20421;-34
2022/03/23 12:12:38;;;;;;;1.40;1.10;;;;;;;;;;4180873;28;20052;-34
2022/03/23 12:14:39;;;;;;;1.80;1.70;;;;;;;;;;4189361;28;20056;-34
2022/03/23 12:16:51;;;;;;;2.35;1.27;;;;;;;;;;4182388;28;20102;-34
2022/03/23 12:19:00;;;;;;;2.75;1.30;;;;;;;;;;4186975;28;20360;-34
2022/03/23 12:21:02;;;;;;;1.95;1.30;;;;;;;;;;4183092;28;20158;-34
2022/03/23 12:23:15;;;;;;;3.47;1.45;;;;;;;;;;4183098;28;20055;-34
2022/03/23 12:25:19;;;;;;;2.97;1.20;;;;;;;;;;4182918;28;20052;-34
2022/03/23 12:27:27;;;;;;;1.88;1.00;;;;;;;;;;4183127;28;20458;-34
2022/03/23 12:29:33;;;;;;;2.22;1.45;;;;;;;;;;4182743;28;20059;-41
2022/03/23 12:31:37;;;;;;;2.50;1.40;;;;;;;;;;4175311;28;20075;-41
2022/03/23 12:33:56;;;;;;;2.53;1.45;;;;;;;;;;4181641;28;20462;-40
2022/03/23 12:36:00;;;;;;;1.73;1.50;;;;;;;;;;4185181;28;20530;-41
2022/03/23 12:38:15;;;;;;;1.50;1.10;;;;;;;;;;4176395;28;20064;-41
2022/03/23 12:40:16;;;;;;;1.60;1.08;;;;;;;;;;4178963;28;20059;-41